createdAt,value
2018-05-09T01:04:44.683Z,100560.08
2018-05-09T01:08:01.875Z,100556.06
2018-05-09T01:11:15.147Z,100556.34
2018-05-09T01:14:23.532Z,100550.80
2018-05-09T01:17:48.504Z,100547.73
2018-05-09T01:20:56.309Z,100548.19
2018-05-09T01:24:03.243Z,100544.50
2018-05-09T01:27:09.069Z,100541.64
2018-05-09T01:30:18.298Z,100541.64
2018-05-09T01:33:22.005Z,100536.70
2018-05-09T01:36:24.776Z,100535.53
2018-05-09T01:39:36.677Z,100529.03
2018-05-09T01:42:52.327Z,100527.12
2018-05-09T01:45:58.749Z,100522.87
2018-05-09T01:49:14.712Z,100525.98
2018-05-09T01:53:01.958Z,100520.73
2018-05-09T01:56:14.087Z,100527.72
2018-05-09T02:02:45.039Z,100522.78
2018-05-09T02:06:10.333Z,100521.11
2018-05-09T02:09:29.220Z,100513.66
2018-05-09T02:16:10.816Z,100513.78
2018-05-09T02:19:17.159Z,100518.41
2018-05-09T02:22:51.633Z,100516.92
2018-05-09T02:26:10.792Z,100511.43
2018-05-09T02:35:07.036Z,100518.73
2018-05-09T02:38:14.677Z,100512.73
2018-05-09T02:41:18.457Z,100501.72
2018-05-09T02:44:45.226Z,100508.77
2018-05-09T02:51:17.912Z,100503.22
2018-05-09T02:57:53.391Z,100506.01
2018-05-09T03:01:11.117Z,100502.57
2018-05-09T03:09:14.032Z,100507.43
2018-05-09T03:16:21.690Z,100502.78
2018-05-09T03:19:50.045Z,100507.23
2018-05-09T03:37:58.761Z,100499.20
2018-05-09T05:10:48.880Z,100496.70
2018-05-09T05:13:51.420Z,100492.91
2018-05-09T05:16:53.921Z,100499.09
2018-05-09T05:19:57.160Z,100497.41
2018-05-09T05:22:59.677Z,100497.93
2018-05-09T05:26:02.313Z,100502.95
2018-05-09T05:29:04.896Z,100502.31
2018-05-09T05:32:11.727Z,100497.00
2018-05-09T05:35:14.351Z,100498.55
2018-05-09T05:38:16.906Z,100497.16
2018-05-09T05:41:19.462Z,100507.90
2018-05-09T05:44:21.973Z,100499.69
2018-05-09T05:47:24.493Z,100510.27
2018-05-09T05:50:27.674Z,100508.57
2018-05-09T05:53:30.207Z,100511.50
2018-05-09T05:56:32.780Z,100516.05
2018-05-09T05:59:35.319Z,100508.88
2018-05-09T06:02:37.832Z,100509.38
2018-05-09T06:05:40.490Z,100510.73
2018-05-09T06:08:43.020Z,100514.27
2018-05-09T06:11:45.586Z,100505.47
2018-05-09T06:14:48.159Z,100498.50
2018-05-09T06:17:50.804Z,100498.73
2018-05-09T06:20:53.339Z,100499.60
2018-05-09T06:23:57.109Z,100502.52
2018-05-09T06:26:59.621Z,100505.34
2018-05-09T06:30:02.198Z,100503.74
2018-05-09T06:33:04.930Z,100505.16
2018-05-09T06:36:10.584Z,100507.84
2018-05-09T06:39:13.171Z,100514.94
2018-05-09T06:42:16.573Z,100515.63
2018-05-09T06:45:19.146Z,100514.31
2018-05-09T06:48:21.668Z,100514.78
2018-05-09T06:51:24.218Z,100518.20
2018-05-09T06:54:26.790Z,100523.59
2018-05-09T06:57:29.486Z,100519.45
2018-05-09T07:00:32.136Z,100525.66
2018-05-09T07:03:36.300Z,100517.60
2018-05-09T07:06:39.998Z,100522.05
2018-05-09T07:09:42.382Z,100518.96
2018-05-09T07:12:45.020Z,100517.98
2018-05-09T07:15:48.444Z,100513.44
2018-05-09T07:18:51.113Z,100509.94
2018-05-09T07:21:53.698Z,100512.76
2018-05-09T07:24:56.385Z,100521.98
2018-05-09T07:27:58.954Z,100523.18
2018-05-09T07:31:01.480Z,100523.64
2018-05-09T07:34:04.017Z,100529.93
2018-05-09T07:37:06.540Z,100529.04
2018-05-09T07:40:09.106Z,100523.77
2018-05-09T07:43:11.616Z,100521.34
2018-05-09T07:46:14.802Z,100523.67
2018-05-09T07:49:17.320Z,100527.11
2018-05-09T07:52:19.803Z,100524.83
2018-05-09T07:55:23.595Z,100524.98
2018-05-09T07:58:26.090Z,100527.38
2018-05-09T08:01:28.621Z,100515.25
2018-05-09T08:04:31.124Z,100512.27
2018-05-09T08:07:33.640Z,100514.27
2018-05-09T08:10:36.263Z,100509.10
2018-05-09T08:13:38.771Z,100507.48
2018-05-09T08:16:41.382Z,100506.84
2018-05-09T08:27:07.326Z,100503.27
2018-05-09T08:33:32.460Z,100493.08
2018-05-09T08:36:46.940Z,100498.09
2018-05-09T08:40:04.936Z,100498.97
2018-05-09T08:43:17.727Z,100500.21
2018-05-09T08:46:20.386Z,100499.17
2018-05-09T08:53:31.611Z,100498.73
2018-05-09T08:56:55.863Z,100503.66
2018-05-09T09:04:08.065Z,100498.17
2018-05-09T09:07:39.548Z,100491.97
2018-05-09T09:10:55.910Z,100490.36
2018-05-09T09:14:14.137Z,100483.09
2018-05-09T09:17:30.127Z,100480.73
2018-05-09T09:20:32.690Z,100479.77
2018-05-09T09:23:35.200Z,100480.45
2018-05-09T09:26:38.357Z,100475.99
2018-05-09T09:29:41.003Z,100480.69
2018-05-09T09:32:43.519Z,100466.09
2018-05-09T09:35:46.060Z,100466.94
2018-05-09T09:38:48.604Z,100467.36
2018-05-09T09:41:51.191Z,100461.34
2018-05-09T09:44:53.724Z,100458.50
2018-05-09T09:47:56.289Z,100454.13
2018-05-09T09:50:58.827Z,100452.03
2018-05-09T09:54:01.419Z,100458.97
2018-05-09T09:57:04.064Z,100447.28
2018-05-09T10:00:06.657Z,100452.47
2018-05-09T10:03:09.242Z,100444.33
2018-05-09T10:06:11.741Z,100440.45
2018-05-09T10:09:14.229Z,100436.53
2018-05-09T10:12:16.742Z,100440.09
2018-05-09T10:15:19.344Z,100433.67
2018-05-09T10:18:21.903Z,100427.75
2018-05-09T10:21:25.189Z,100424.88
2018-05-09T10:24:27.692Z,100420.58
2018-05-09T10:27:30.228Z,100421.69
2018-05-09T10:30:32.810Z,100418.61
2018-05-09T10:33:35.314Z,100423.08
2018-05-09T10:36:37.830Z,100419.78
2018-05-09T10:39:40.383Z,100420.34
2018-05-09T10:42:42.959Z,100420.52
2018-05-09T10:45:45.520Z,100423.35
2018-05-09T10:48:48.068Z,100420.42
2018-05-09T10:51:50.635Z,100412.78
2018-05-09T10:54:53.212Z,100407.97
2018-05-09T10:57:57.519Z,100408.76
2018-05-09T11:01:00.029Z,100405.55
2018-05-09T11:04:02.564Z,100406.53
2018-05-09T11:07:05.132Z,100411.23
2018-05-09T11:10:07.697Z,100394.44
2018-05-09T11:13:10.268Z,100395.66
2018-05-09T11:16:12.917Z,100389.00
2018-05-09T11:19:16.157Z,100393.09
2018-05-09T11:22:19.632Z,100387.25
2018-05-09T11:25:22.246Z,100391.91
2018-05-09T11:28:25.708Z,100386.69
2018-05-09T11:31:28.248Z,100380.62
2018-05-09T11:34:30.979Z,100389.63
2018-05-09T11:37:33.572Z,100382.45
2018-05-09T11:40:36.172Z,100381.37
2018-05-09T11:43:39.902Z,100394.48
2018-05-09T11:46:42.554Z,100396.08
2018-05-09T11:49:45.137Z,100388.72
2018-05-09T11:52:47.724Z,100394.26
2018-05-09T11:55:50.332Z,100383.52
2018-05-09T11:58:52.978Z,100384.96
2018-05-09T12:01:55.531Z,100378.86
2018-05-09T12:04:58.161Z,100383.67
2018-05-09T12:08:01.448Z,100379.37
2018-05-09T12:11:04.043Z,100386.20
2018-05-09T12:14:06.583Z,100370.76
2018-05-09T12:17:09.122Z,100367.91
2018-05-09T12:20:11.658Z,100363.72
2018-05-09T12:23:14.252Z,100361.06
2018-05-09T12:26:16.835Z,100348.13
2018-05-09T12:29:19.413Z,100344.73
2018-05-09T12:32:21.947Z,100342.58
2018-05-09T12:35:24.541Z,100344.98
2018-05-09T12:38:27.141Z,100338.77
2018-05-09T12:41:29.658Z,100329.56
2018-05-09T12:44:32.298Z,100327.08
2018-05-09T12:47:34.939Z,100329.13
2018-05-09T12:50:37.517Z,100318.81
2018-05-09T12:53:40.209Z,100312.13
2018-05-09T12:56:43.242Z,100313.62
2018-05-09T12:59:45.845Z,100317.79
2018-05-09T13:02:48.528Z,100319.52
2018-05-09T13:05:51.288Z,100307.45
2018-05-09T13:08:53.917Z,100301.95
2018-05-09T13:11:56.464Z,100306.23
2018-05-09T13:14:59.031Z,100298.71
2018-05-09T13:18:02.842Z,100294.59
2018-05-09T13:21:05.381Z,100289.36
2018-05-09T13:24:07.995Z,100284.00
2018-05-09T13:27:10.534Z,100280.72
2018-05-09T13:30:13.206Z,100279.59
2018-05-09T13:33:16.784Z,100268.55
2018-05-09T13:36:19.362Z,100276.70
2018-05-09T13:39:21.932Z,100277.06
2018-05-09T13:42:25.122Z,100268.75
2018-05-09T13:45:27.691Z,100269.33
2018-05-09T13:52:44.271Z,100259.77
2018-05-09T13:55:53.314Z,100261.50
2018-05-09T14:06:18.983Z,100250.36
2018-05-09T14:13:18.964Z,100252.93
2018-05-09T14:16:21.599Z,100249.62
2018-05-09T14:19:24.180Z,100241.77
2018-05-09T14:22:30.460Z,100245.70
2018-05-09T15:26:41.575Z,100178.08
2018-05-09T15:29:44.215Z,100183.92
2018-05-09T15:32:46.926Z,100179.52
2018-05-09T15:35:49.546Z,100177.59
2018-05-09T15:38:52.223Z,100181.81
2018-05-09T15:41:54.734Z,100179.12
2018-05-09T15:44:57.286Z,100162.05
2018-05-09T15:47:59.843Z,100168.40
2018-05-09T15:51:02.525Z,100169.81
2018-05-09T15:54:05.152Z,100172.03
2018-05-09T15:57:08.646Z,100164.70
2018-05-09T16:00:11.278Z,100165.14
2018-05-09T16:03:13.813Z,100167.70
2018-05-09T16:06:16.336Z,100163.47
2018-05-09T16:09:18.923Z,100157.66
2018-05-09T16:12:21.436Z,100151.50
2018-05-09T16:15:23.994Z,100144.12
2018-05-09T16:18:26.574Z,100147.66
2018-05-09T16:21:29.643Z,100147.23
2018-05-09T16:24:32.300Z,100148.23
2018-05-09T16:27:34.870Z,100147.71
2018-05-09T16:30:37.525Z,100143.52
2018-05-09T16:33:40.082Z,100138.58
2018-05-09T16:36:42.752Z,100144.61
2018-05-09T16:39:45.372Z,100145.16
2018-05-09T16:42:48.803Z,100153.31
2018-05-09T16:45:51.418Z,100154.62
2018-05-09T16:48:53.925Z,100152.76
2018-05-09T16:51:56.500Z,100154.50
2018-05-09T16:55:00.889Z,100154.41
2018-05-09T16:58:03.406Z,100154.52
2018-05-09T17:01:06.140Z,100152.21
2018-05-09T17:04:08.724Z,100150.73
2018-05-09T17:07:11.295Z,100150.42
2018-05-09T17:10:13.841Z,100148.66
2018-05-09T17:13:16.419Z,100154.00
2018-05-09T17:16:19.125Z,100150.38
2018-05-09T17:19:21.683Z,100147.66
2018-05-09T17:22:33.873Z,100149.39
2018-05-09T17:25:36.392Z,100140.33
2018-05-09T17:28:38.923Z,100150.98
2018-05-09T17:31:41.511Z,100155.77
2018-05-09T17:34:44.091Z,100165.08
2018-05-09T17:37:46.636Z,100177.45
2018-05-09T17:40:49.366Z,100205.81
2018-05-09T17:43:51.930Z,100208.57
2018-05-09T17:46:54.547Z,100202.17
2018-05-09T17:49:57.168Z,100207.03
2018-05-09T17:52:59.783Z,100213.36
2018-05-09T17:56:02.370Z,100211.05
2018-05-09T17:59:05.002Z,100213.08
2018-05-09T18:02:08.061Z,100205.91
2018-05-09T18:05:10.603Z,100211.72
2018-05-09T18:08:13.213Z,100206.94
2018-05-09T18:11:16.007Z,100193.05
2018-05-09T18:14:18.569Z,100185.81
2018-05-09T18:17:21.122Z,100185.41
2018-05-09T18:20:23.663Z,100191.75
2018-05-09T18:23:26.269Z,100191.94
2018-05-09T18:26:29.733Z,100187.42
2018-05-09T18:29:32.395Z,100178.70
2018-05-09T18:32:34.951Z,100175.05
2018-05-09T18:35:37.589Z,100175.60
2018-05-09T18:38:40.338Z,100177.20
2018-05-09T18:41:42.907Z,100177.30
2018-05-09T18:44:45.643Z,100174.02
2018-05-09T18:47:48.275Z,100173.56
2018-05-09T18:50:50.983Z,100173.08
2018-05-09T18:53:53.557Z,100170.48
2018-05-09T18:56:56.233Z,100168.88
2018-05-09T18:59:58.893Z,100165.67
2018-05-09T19:03:02.341Z,100168.68
2018-05-09T19:06:05.013Z,100165.05
2018-05-09T19:09:07.615Z,100157.08
2018-05-09T19:12:10.248Z,100154.55
2018-05-09T19:15:13.850Z,100162.62
2018-05-09T19:18:16.434Z,100175.45
2018-05-09T19:21:19.084Z,100172.80
2018-05-09T19:24:22.040Z,100181.25
2018-05-09T19:27:24.676Z,100184.77
2018-05-09T19:30:27.396Z,100183.92
2018-05-09T19:33:30.019Z,100184.83
2018-05-09T19:36:32.805Z,100191.08
2018-05-09T19:39:35.561Z,100182.68
2018-05-09T19:42:40.198Z,100185.50
2018-05-09T19:45:44.974Z,100178.89
2018-05-09T19:48:48.808Z,100184.33
2018-05-09T19:51:51.780Z,100181.38
2018-05-09T19:54:54.502Z,100179.34
2018-05-09T19:57:58.484Z,100175.27
2018-05-09T20:01:04.478Z,100170.52
2018-05-09T20:04:07.843Z,100168.55
2018-05-09T20:07:12.172Z,100169.23
2018-05-09T20:10:15.058Z,100169.14
2018-05-09T20:13:18.760Z,100162.31
2018-05-09T20:16:21.431Z,100170.54
2018-05-09T20:19:24.199Z,100168.55
2018-05-09T20:22:27.767Z,100163.41
2018-05-09T20:25:41.025Z,100166.52
2018-05-09T20:28:49.307Z,100161.91
2018-05-09T20:32:06.396Z,100165.65
2018-05-09T20:35:14.059Z,100163.63
2018-05-09T20:38:21.346Z,100166.30
2018-05-09T20:41:29.799Z,100164.42
2018-05-09T20:44:34.514Z,100167.43
2018-05-09T20:47:42.031Z,100166.67
2018-05-09T20:50:46.118Z,100173.59
2018-05-09T20:53:51.232Z,100186.65
2018-05-09T20:56:58.992Z,100188.21
2018-05-09T21:00:01.661Z,100184.59
2018-05-09T21:03:09.120Z,100194.79
2018-05-09T21:06:11.786Z,100190.83
2018-05-09T21:09:17.747Z,100188.34
2018-05-09T21:12:34.781Z,100196.09
2018-05-09T21:15:37.697Z,100199.28
2018-05-09T21:18:40.352Z,100198.80
2018-05-09T21:21:42.964Z,100202.70
2018-05-09T21:24:45.515Z,100194.80
2018-05-09T21:27:48.221Z,100188.83
2018-05-09T21:30:50.815Z,100190.35
2018-05-09T21:33:53.477Z,100191.96
2018-05-09T21:36:57.793Z,100190.08
2018-05-09T21:40:00.498Z,100193.62
2018-05-09T21:43:03.127Z,100181.02
2018-05-09T21:49:19.805Z,100179.77
2018-05-09T21:52:38.017Z,100186.64
2018-05-09T22:03:46.824Z,100177.27
2018-05-09T22:06:49.409Z,100168.34
2018-05-09T22:09:51.982Z,100166.91
2018-05-09T22:12:58.035Z,100163.94
2018-05-09T22:19:43.322Z,100164.84
2018-05-09T22:22:45.875Z,100162.37
2018-05-09T22:25:48.434Z,100156.94
2018-05-09T22:28:51.039Z,100161.39
2018-05-09T22:31:53.541Z,100163.21
2018-05-09T22:34:56.087Z,100160.77
2018-05-09T22:37:58.630Z,100152.67
2018-05-09T22:41:01.193Z,100154.38
2018-05-09T22:44:03.753Z,100155.81
2018-05-09T22:47:06.298Z,100151.07
2018-05-09T22:50:09.217Z,100154.94
2018-05-09T22:53:11.708Z,100155.95
2018-05-09T22:56:14.246Z,100147.90
2018-05-09T22:59:16.781Z,100148.81
2018-05-09T23:02:19.354Z,100151.12
2018-05-09T23:05:21.873Z,100144.79
2018-05-09T23:08:24.359Z,100151.46
2018-05-09T23:11:26.871Z,100151.20
2018-05-09T23:14:29.423Z,100147.52
2018-05-09T23:17:32.098Z,100150.39
2018-05-09T23:20:34.592Z,100147.38
2018-05-09T23:23:37.151Z,100143.59
2018-05-09T23:26:39.765Z,100142.03
2018-05-09T23:29:42.293Z,100140.33
2018-05-09T23:32:44.839Z,100139.28
2018-05-09T23:35:47.352Z,100144.54
2018-05-09T23:38:49.957Z,100135.52
2018-05-09T23:41:52.456Z,100137.83
2018-05-09T23:44:57.288Z,100140.70
2018-05-09T23:48:00.655Z,100138.39
2018-05-09T23:51:03.189Z,100140.94
2018-05-09T23:54:05.692Z,100144.73
2018-05-09T23:57:08.182Z,100140.60
